This is the latest recevied weather packets stored in our database for station/object OE3PDB-10. If no packets are shown the sender has not sent any weather packets the latest 10 day(s).
| Time | Temp. | Humidity | Pressure | Rain* | Wind** | Luminosity | Snow |
|---|---|---|---|---|---|---|---|
| 1777547451 | - | - | 1111 hPa | 0 mm | - | - | - |
| 1777546851 | 11.11° C | 34% | 1111 hPa | 0 mm | - | - | - |
| 1777546251 | 11.11° C | 34% | 1111 hPa | 0 mm | - | - | - |
| 1777545651 | 11.11° C | 34% | 1111 hPa | 0 mm | - | - | - |
| 1777545051 | 11.11° C | 34% | 1111 hPa | 0 mm | - | - | - |
| 1777544451 | 11.11° C | 34% | 1111 hPa | 0 mm | - | - | - |
| 1777543851 | 11.11° C | 34% | 1111 hPa | 0 mm | - | - | - |
| 1777543252 | 11.11° C | 34% | 1111 hPa | 0 mm | - | - | - |
| 1777542651 | 11.11° C | 33% | 1111 hPa | 0 mm | - | - | - |
| 1777542052 | 11.67° C | 33% | 1111 hPa | 0 mm | - | - | - |
| 1777541452 | 11.67° C | 32% | 1111 hPa | 0 mm | - | - | - |
| 1777540852 | 12.78° C | 32% | 1111 hPa | 0 mm | - | - | - |
| 1777540252 | 12.78° C | 31% | 1111 hPa | 0 mm | - | - | - |
| 1777539652 | 13.33° C | 30% | 1111 hPa | 0 mm | - | - | - |
| 1777539052 | 13.89° C | 30% | 1111 hPa | 0 mm | - | - | - |
| 1777538452 | 15° C | 30% | 1111 hPa | 0 mm | - | - | - |
| 1777537852 | 15.56° C | 30% | 1111 hPa | 0 mm | - | - | - |
| 1777537252 | 15.56° C | 30% | 1111 hPa | 0 mm | - | - | - |
| 1777536652 | 16.11° C | 31% | 1111 hPa | 0 mm | - | - | - |
| 1777536052 | 16.11° C | 30% | 1111 hPa | 0 mm | - | - | - |
| 1777535452 | 16.11° C | 30% | 1111 hPa | 0 mm | - | - | - |
| 1777534852 | 15° C | 33% | 1111 hPa | 0 mm | - | - | - |
| 1777534252 | 14.44° C | 31% | 1111 hPa | 0 mm | - | - | - |
| 1777533652 | 13.33° C | 36% | 1111 hPa | 0 mm | - | - | - |
| 1777533052 | 11.11° C | 41% | 1111 hPa | 0 mm | - | - | - |
* Rain latest hour (hover to see other rain measurements)
** Current wind speed in m/s (hover to see current wind gust speed)